Agios Nikolaos — SY4620 — position and weather

sailwx.info

Track history (hours):
 
Tides and Currents Weather Stations Pressure Air Temp Water Temp Dewpoint Dewpoint Depression Visibility Wind Speed Wind Dir Waves Ship Positions

Agios Nikolaos

Last reported at 2017-Oct-17 18:25 UTC. Time now 2017-Oct-19 18:42 UTC.
Position N 40°38' E 024°07'.

Length 29 m; draft 2.5 m.

Type: Fishing. MMSI: 240164000.

Date/timePositionNaut miles runAvg speedWind from/ knotsBaromVisibWave heightAir tempDewpointWater temp
2017-Oct-17 18:25N 40°38' E 024°07'0 0.9
2017-Oct-17 17:53N 40°37' E 024°07'0 0.1
2017-Oct-17 17:29N 40°37' E 024°07'0 0.3
2017-Oct-17 17:00N 40°37' E 024°07'0 0.1
2017-Oct-17 16:30N 40°37' E 024°07'4 8.9
2017-Oct-17 16:00N 40°35' E 024°02'4 0.2
2017-Oct-16 20:24N 40°37' E 024°07'0 0.2
2017-Oct-16 19:55N 40°37' E 024°07'0 0.5
2017-Oct-16 19:23N 40°37' E 024°07'0 0.7
2017-Oct-16 18:47N 40°37' E 024°07'0 0.0
2017-Oct-16 17:19N 40°37' E 024°07'0 0.5
2017-Oct-16 17:00N 40°37' E 024°07'1 2.2
2017-Oct-16 16:30N 40°36' E 024°09'0 0.5
2017-Oct-16 16:00N 40°36' E 024°08'2 5.0
2017-Oct-16 15:30N 40°35' E 024°05'2 0.1
2017-Oct-15 17:19N 40°37' E 024°06'0 0.7
2017-Oct-15 16:49N 40°37' E 024°06'0 1.5
2017-Oct-15 16:31N 40°37' E 024°05'0 0.9
2017-Oct-15 15:59N 40°37' E 024°05'10 7.2
2017-Oct-15 14:37N 40°29' E 023°58'6 8.2
2017-Oct-15 13:54N 40°24' E 023°54'13 0.3
2017-Oct-13 19:36N 40°36' E 024°02'2 9.1
2017-Oct-13 19:24N 40°37' E 024°04'1 1.2
2017-Oct-13 18:39N 40°38' E 024°04'0 0.1
2017-Oct-13 18:01N 40°38' E 024°04'0 4.3
2017-Oct-13 17:58N 40°38' E 024°04'0 0.6
2017-Oct-13 17:28N 40°38' E 024°04'0 0.6
2017-Oct-13 17:00N 40°38' E 024°04'1 2.6
2017-Oct-13 16:30N 40°39' E 024°05'2 0.1
2017-Oct-12 17:40N 40°40' E 024°06'0 0.0
2017-Oct-12 17:15N 40°40' E 024°06'0 1.4
2017-Oct-12 16:56N 40°41' E 024°06'1 2.0
2017-Oct-12 16:30N 40°40' E 024°07'1 1.3
2017-Oct-12 15:59N 40°41' E 024°07'2 5.0
2017-Oct-12 15:30N 40°42' E 024°09'4 8.2
2017-Oct-12 15:00N 40°44' E 024°14'4 7.8
2017-Oct-12 14:30N 40°47' E 024°18'3 6.9
2017-Oct-12 14:00N 40°50' E 024°20'1 2.5
2017-Oct-12 13:30N 40°51' E 024°19'0 0.0
2017-Oct-12 13:00N 40°51' E 024°19'0 0.0
2017-Oct-12 12:30N 40°51' E 024°19'0 0.0
2017-Oct-12 12:00N 40°51' E 024°19'0 0.0
2017-Oct-12 11:30N 40°51' E 024°19'0 0.0
2017-Oct-12 11:00N 40°51' E 024°19'0 0.0
2017-Oct-12 10:30N 40°51' E 024°19'0 0.0
2017-Oct-12 10:00N 40°51' E 024°19'0 0.0
2017-Oct-12 09:30N 40°51' E 024°19'0 0.0
2017-Oct-12 09:00N 40°51' E 024°19'0 0.0
2017-Oct-12 08:30N 40°51' E 024°19'0 0.0
2017-Oct-12 08:00N 40°51' E 024°19'0 0.0
2017-Oct-12 07:30N 40°51' E 024°19'0 0.0
2017-Oct-12 07:00N 40°51' E 024°19'0 0.0
2017-Oct-12 06:30N 40°51' E 024°19'0 0.0
2017-Oct-12 06:00N 40°51' E 024°19'0 0.0
2017-Oct-12 05:30N 40°51' E 024°19'0 0.0
2017-Oct-12 05:00N 40°51' E 024°19'0 0.5
2017-Oct-12 04:30N 40°51' E 024°19'0 0.0
2017-Oct-12 04:00N 40°51' E 024°19'0 0.0
2017-Oct-12 03:30N 40°51' E 024°19'0 0.0
2017-Oct-12 03:00N 40°51' E 024°19'0 0.0
2017-Oct-12 02:30N 40°51' E 024°19'0 0.0
2017-Oct-12 02:00N 40°51' E 024°19'0 0.0
2017-Oct-12 01:30N 40°51' E 024°19'0 0.0
2017-Oct-12 01:00N 40°51' E 024°19'0 0.0
2017-Oct-12 00:30N 40°51' E 024°19'0 0.0
2017-Oct-12 00:00N 40°51' E 024°19'0 0.0
2017-Oct-11 23:30N 40°51' E 024°19'0 0.0
2017-Oct-11 23:00N 40°51' E 024°19'0 0.0
2017-Oct-11 22:30N 40°51' E 024°19'2 3.5
2017-Oct-11 22:00N 40°49' E 024°21'5 9.7
2017-Oct-11 21:30N 40°45' E 024°18'510.0
2017-Oct-11 21:00N 40°40' E 024°15'11 0.5
2017-Oct-11 00:00N 40°51' E 024°19'0 0.0
2017-Oct-10 23:29N 40°51' E 024°19'0 0.0
2017-Oct-10 22:56N 40°51' E 024°19'0 0.0
2017-Oct-10 22:27N 40°51' E 024°19'0 0.0
2017-Oct-10 21:59N 40°51' E 024°19'0 0.0
2017-Oct-10 21:25N 40°51' E 024°19'3 6.6
2017-Oct-10 21:01N 40°48' E 024°20'5 9.8
2017-Oct-10 20:30N 40°44' E 024°18'2 0.3
2017-Oct-10 15:27N 40°45' E 024°20'4 8.2
2017-Oct-10 15:00N 40°49' E 024°21'3 2.5
2017-Oct-10 14:00N 40°51' E 024°19'0 0.0
2017-Oct-10 13:30N 40°51' E 024°19'0 0.0
2017-Oct-10 13:00N 40°51' E 024°19'0 0.0
2017-Oct-10 12:30N 40°51' E 024°19'0 0.0
2017-Oct-10 12:00N 40°51' E 024°19'0 0.0
2017-Oct-10 11:30N 40°51' E 024°19'0 0.0
2017-Oct-10 11:00N 40°51' E 024°19'0 0.0
2017-Oct-10 10:30N 40°51' E 024°19'0 0.0
2017-Oct-10 10:00N 40°51' E 024°19'0 0.0
2017-Oct-10 09:30N 40°51' E 024°19'0 0.0
2017-Oct-10 09:00N 40°51' E 024°19'0 0.0
2017-Oct-10 08:30N 40°51' E 024°19'0 0.0
2017-Oct-10 08:00N 40°51' E 024°19'0 0.0
2017-Oct-10 07:30N 40°51' E 024°19'0 0.0
2017-Oct-10 07:00N 40°51' E 024°19'0 0.0
2017-Oct-10 06:30N 40°51' E 024°19'0 0.0
2017-Oct-10 06:00N 40°51' E 024°19'0 0.0
2017-Oct-10 05:30N 40°51' E 024°19'0 0.0
2017-Oct-10 05:00N 40°51' E 024°19'0 0.0
2017-Oct-10 04:30N 40°51' E 024°19'0 0.0
2017-Oct-10 04:00N 40°51' E 024°19'0 0.0
2017-Oct-10 03:30N 40°51' E 024°19'0 0.0
2017-Oct-10 03:00N 40°51' E 024°19'0 0.0
2017-Oct-10 02:30N 40°51' E 024°19'0 0.0
2017-Oct-10 02:00N 40°51' E 024°19'0 0.0
2017-Oct-10 01:30N 40°51' E 024°19'0 0.0
2017-Oct-10 01:00N 40°51' E 024°19'0 0.0
2017-Oct-10 00:30N 40°51' E 024°19'0 0.0
2017-Oct-10 00:00N 40°51' E 024°19'0 0.0
2017-Oct-09 23:30N 40°51' E 024°19'0 0.0
2017-Oct-09 23:00N 40°51' E 024°19'0 0.0
2017-Oct-09 22:30N 40°51' E 024°19'0 0.0
2017-Oct-09 22:00N 40°51' E 024°19'0 0.0
2017-Oct-09 21:30N 40°51' E 024°19'0 0.0
2017-Oct-09 21:00N 40°51' E 024°19'3 6.0
2017-Oct-09 20:30N 40°48' E 024°19'5 9.8
2017-Oct-09 20:00N 40°44' E 024°16'4 0.8
2017-Oct-09 14:40N 40°47' E 024°20'1 7.4
2017-Oct-09 14:30N 40°48' E 024°20'3 1.2
2017-Oct-09 12:01N 40°51' E 024°19'0 0.0
2017-Oct-09 09:47N 40°51' E 024°19'0 0.0
2017-Oct-09 09:29N 40°51' E 024°19'0 0.0
2017-Oct-09 08:59N 40°51' E 024°19'0 0.0
2017-Oct-09 08:30N 40°51' E 024°19'0 0.0
2017-Oct-09 08:00N 40°51' E 024°19'0 0.0
2017-Oct-09 07:30N 40°51' E 024°19'0 0.0
2017-Oct-09 07:00N 40°51' E 024°19'0 0.0
2017-Oct-09 06:30N 40°51' E 024°19'0 0.0
2017-Oct-09 05:59N 40°51' E 024°19'0 0.0
2017-Oct-09 05:30N 40°51' E 024°19'0 0.0
2017-Oct-09 05:00N 40°51' E 024°19'0 0.0
2017-Oct-09 04:30N 40°51' E 024°19'0 0.0
2017-Oct-09 04:00N 40°51' E 024°19'0 0.0
2017-Oct-09 03:30N 40°51' E 024°19'0 0.0
2017-Oct-09 03:00N 40°51' E 024°19'0 0.0
2017-Oct-09 02:29N 40°51' E 024°19'0 0.0
2017-Oct-09 02:00N 40°51' E 024°19'0 0.0
2017-Oct-09 01:30N 40°51' E 024°19'0 0.0
2017-Oct-09 01:00N 40°51' E 024°19'0 0.0
2017-Oct-09 00:21N 40°51' E 024°19'0 0.0
2017-Oct-08 23:43N 40°51' E 024°19'0 0.0
2017-Oct-08 23:27N 40°51' E 024°19'0 0.0
2017-Oct-08 22:59N 40°51' E 024°19'0 0.0
2017-Oct-08 22:25N 40°51' E 024°19'0 0.0
2017-Oct-08 22:00N 40°51' E 024°19'0 0.0
2017-Oct-08 21:30N 40°51' E 024°19'0 0.0
2017-Oct-08 20:57N 40°51' E 024°19'2 5.3
2017-Oct-08 20:30N 40°49' E 024°20'  
Track history (hours):
 
Tides and Currents Weather Stations Pressure Air Temp Water Temp Dewpoint Dewpoint Depression Visibility Wind Speed Wind Dir Waves Ship Positions

Agios Nikolaos

Last reported at 2017-Oct-17 18:25 UTC. Time now 2017-Oct-19 18:42 UTC.
Position N 40°38' E 024°07'.

Length 29 m; draft 2.5 m.

Type: Fishing. MMSI: 240164000.

Date/timePositionNaut miles runAvg speedWind from/ knotsBaromVisibWave heightAir tempDewpointWater temp
2017-Oct-17 18:25N 40°38' E 024°07'0 0.9
2017-Oct-17 17:53N 40°37' E 024°07'0 0.1
2017-Oct-17 17:29N 40°37' E 024°07'0 0.3
2017-Oct-17 17:00N 40°37' E 024°07'0 0.1
2017-Oct-17 16:30N 40°37' E 024°07'4 8.9
2017-Oct-17 16:00N 40°35' E 024°02'4 0.2
2017-Oct-16 20:24N 40°37' E 024°07'0 0.2
2017-Oct-16 19:55N 40°37' E 024°07'0 0.5
2017-Oct-16 19:23N 40°37' E 024°07'0 0.7
2017-Oct-16 18:47N 40°37' E 024°07'0 0.0
2017-Oct-16 17:19N 40°37' E 024°07'0 0.5
2017-Oct-16 17:00N 40°37' E 024°07'1 2.2
2017-Oct-16 16:30N 40°36' E 024°09'0 0.5
2017-Oct-16 16:00N 40°36' E 024°08'2 5.0
2017-Oct-16 15:30N 40°35' E 024°05'2 0.1
2017-Oct-15 17:19N 40°37' E 024°06'0 0.7
2017-Oct-15 16:49N 40°37' E 024°06'0 1.5
2017-Oct-15 16:31N 40°37' E 024°05'0 0.9
2017-Oct-15 15:59N 40°37' E 024°05'10 7.2
2017-Oct-15 14:37N 40°29' E 023°58'6 8.2
2017-Oct-15 13:54N 40°24' E 023°54'13 0.3
2017-Oct-13 19:36N 40°36' E 024°02'2 9.1
2017-Oct-13 19:24N 40°37' E 024°04'1 1.2
2017-Oct-13 18:39N 40°38' E 024°04'0 0.1
2017-Oct-13 18:01N 40°38' E 024°04'0 4.3
2017-Oct-13 17:58N 40°38' E 024°04'0 0.6
2017-Oct-13 17:28N 40°38' E 024°04'0 0.6
2017-Oct-13 17:00N 40°38' E 024°04'1 2.6
2017-Oct-13 16:30N 40°39' E 024°05'2 0.1
2017-Oct-12 17:40N 40°40' E 024°06'0 0.0
2017-Oct-12 17:15N 40°40' E 024°06'0 1.4
2017-Oct-12 16:56N 40°41' E 024°06'1 2.0
2017-Oct-12 16:30N 40°40' E 024°07'1 1.3
2017-Oct-12 15:59N 40°41' E 024°07'2 5.0
2017-Oct-12 15:30N 40°42' E 024°09'4 8.2
2017-Oct-12 15:00N 40°44' E 024°14'4 7.8
2017-Oct-12 14:30N 40°47' E 024°18'3 6.9
2017-Oct-12 14:00N 40°50' E 024°20'1 2.5
2017-Oct-12 13:30N 40°51' E 024°19'0 0.0
2017-Oct-12 13:00N 40°51' E 024°19'0 0.0
2017-Oct-12 12:30N 40°51' E 024°19'0 0.0
2017-Oct-12 12:00N 40°51' E 024°19'0 0.0
2017-Oct-12 11:30N 40°51' E 024°19'0 0.0
2017-Oct-12 11:00N 40°51' E 024°19'0 0.0
2017-Oct-12 10:30N 40°51' E 024°19'0 0.0
2017-Oct-12 10:00N 40°51' E 024°19'0 0.0
2017-Oct-12 09:30N 40°51' E 024°19'0 0.0
2017-Oct-12 09:00N 40°51' E 024°19'0 0.0
2017-Oct-12 08:30N 40°51' E 024°19'0 0.0
2017-Oct-12 08:00N 40°51' E 024°19'0 0.0
2017-Oct-12 07:30N 40°51' E 024°19'0 0.0
2017-Oct-12 07:00N 40°51' E 024°19'0 0.0
2017-Oct-12 06:30N 40°51' E 024°19'0 0.0
2017-Oct-12 06:00N 40°51' E 024°19'0 0.0
2017-Oct-12 05:30N 40°51' E 024°19'0 0.0
2017-Oct-12 05:00N 40°51' E 024°19'0 0.5
2017-Oct-12 04:30N 40°51' E 024°19'0 0.0
2017-Oct-12 04:00N 40°51' E 024°19'0 0.0
2017-Oct-12 03:30N 40°51' E 024°19'0 0.0
2017-Oct-12 03:00N 40°51' E 024°19'0 0.0
2017-Oct-12 02:30N 40°51' E 024°19'0 0.0
2017-Oct-12 02:00N 40°51' E 024°19'0 0.0
2017-Oct-12 01:30N 40°51' E 024°19'0 0.0
2017-Oct-12 01:00N 40°51' E 024°19'0 0.0
2017-Oct-12 00:30N 40°51' E 024°19'0 0.0
2017-Oct-12 00:00N 40°51' E 024°19'0 0.0
2017-Oct-11 23:30N 40°51' E 024°19'0 0.0
2017-Oct-11 23:00N 40°51' E 024°19'0 0.0
2017-Oct-11 22:30N 40°51' E 024°19'2 3.5
2017-Oct-11 22:00N 40°49' E 024°21'5 9.7
2017-Oct-11 21:30N 40°45' E 024°18'510.0
2017-Oct-11 21:00N 40°40' E 024°15'11 0.5
2017-Oct-11 00:00N 40°51' E 024°19'0 0.0
2017-Oct-10 23:29N 40°51' E 024°19'0 0.0
2017-Oct-10 22:56N 40°51' E 024°19'0 0.0
2017-Oct-10 22:27N 40°51' E 024°19'0 0.0
2017-Oct-10 21:59N 40°51' E 024°19'0 0.0
2017-Oct-10 21:25N 40°51' E 024°19'3 6.6
2017-Oct-10 21:01N 40°48' E 024°20'5 9.8
2017-Oct-10 20:30N 40°44' E 024°18'2 0.3
2017-Oct-10 15:27N 40°45' E 024°20'4 8.2
2017-Oct-10 15:00N 40°49' E 024°21'3 2.5
2017-Oct-10 14:00N 40°51' E 024°19'0 0.0
2017-Oct-10 13:30N 40°51' E 024°19'0 0.0
2017-Oct-10 13:00N 40°51' E 024°19'0 0.0
2017-Oct-10 12:30N 40°51' E 024°19'0 0.0
2017-Oct-10 12:00N 40°51' E 024°19'0 0.0
2017-Oct-10 11:30N 40°51' E 024°19'0 0.0
2017-Oct-10 11:00N 40°51' E 024°19'0 0.0
2017-Oct-10 10:30N 40°51' E 024°19'0 0.0
2017-Oct-10 10:00N 40°51' E 024°19'0 0.0
2017-Oct-10 09:30N 40°51' E 024°19'0 0.0
2017-Oct-10 09:00N 40°51' E 024°19'0 0.0
2017-Oct-10 08:30N 40°51' E 024°19'0 0.0
2017-Oct-10 08:00N 40°51' E 024°19'0 0.0
2017-Oct-10 07:30N 40°51' E 024°19'0 0.0
2017-Oct-10 07:00N 40°51' E 024°19'0 0.0
2017-Oct-10 06:30N 40°51' E 024°19'0 0.0
2017-Oct-10 06:00N 40°51' E 024°19'0 0.0
2017-Oct-10 05:30N 40°51' E 024°19'0 0.0
2017-Oct-10 05:00N 40°51' E 024°19'0 0.0
2017-Oct-10 04:30N 40°51' E 024°19'0 0.0
2017-Oct-10 04:00N 40°51' E 024°19'0 0.0
2017-Oct-10 03:30N 40°51' E 024°19'0 0.0
2017-Oct-10 03:00N 40°51' E 024°19'0 0.0
2017-Oct-10 02:30N 40°51' E 024°19'0 0.0
2017-Oct-10 02:00N 40°51' E 024°19'0 0.0
2017-Oct-10 01:30N 40°51' E 024°19'0 0.0
2017-Oct-10 01:00N 40°51' E 024°19'0 0.0
2017-Oct-10 00:30N 40°51' E 024°19'0 0.0
2017-Oct-10 00:00N 40°51' E 024°19'0 0.0
2017-Oct-09 23:30N 40°51' E 024°19'0 0.0
2017-Oct-09 23:00N 40°51' E 024°19'0 0.0
2017-Oct-09 22:30N 40°51' E 024°19'0 0.0
2017-Oct-09 22:00N 40°51' E 024°19'0 0.0
2017-Oct-09 21:30N 40°51' E 024°19'0 0.0
2017-Oct-09 21:00N 40°51' E 024°19'3 6.0
2017-Oct-09 20:30N 40°48' E 024°19'5 9.8
2017-Oct-09 20:00N 40°44' E 024°16'4 0.8
2017-Oct-09 14:40N 40°47' E 024°20'1 7.4
2017-Oct-09 14:30N 40°48' E 024°20'3 1.2
2017-Oct-09 12:01N 40°51' E 024°19'0 0.0
2017-Oct-09 09:47N 40°51' E 024°19'0 0.0
2017-Oct-09 09:29N 40°51' E 024°19'0 0.0
2017-Oct-09 08:59N 40°51' E 024°19'0 0.0
2017-Oct-09 08:30N 40°51' E 024°19'0 0.0
2017-Oct-09 08:00N 40°51' E 024°19'0 0.0
2017-Oct-09 07:30N 40°51' E 024°19'0 0.0
2017-Oct-09 07:00N 40°51' E 024°19'0 0.0
2017-Oct-09 06:30N 40°51' E 024°19'0 0.0
2017-Oct-09 05:59N 40°51' E 024°19'0 0.0
2017-Oct-09 05:30N 40°51' E 024°19'0 0.0
2017-Oct-09 05:00N 40°51' E 024°19'0 0.0
2017-Oct-09 04:30N 40°51' E 024°19'0 0.0
2017-Oct-09 04:00N 40°51' E 024°19'0 0.0
2017-Oct-09 03:30N 40°51' E 024°19'0 0.0
2017-Oct-09 03:00N 40°51' E 024°19'0 0.0
2017-Oct-09 02:29N 40°51' E 024°19'0 0.0
2017-Oct-09 02:00N 40°51' E 024°19'0 0.0
2017-Oct-09 01:30N 40°51' E 024°19'0 0.0
2017-Oct-09 01:00N 40°51' E 024°19'0 0.0
2017-Oct-09 00:21N 40°51' E 024°19'0 0.0
2017-Oct-08 23:43N 40°51' E 024°19'0 0.0
2017-Oct-08 23:27N 40°51' E 024°19'0 0.0
2017-Oct-08 22:59N 40°51' E 024°19'0 0.0
2017-Oct-08 22:25N 40°51' E 024°19'0 0.0
2017-Oct-08 22:00N 40°51' E 024°19'0 0.0
2017-Oct-08 21:30N 40°51' E 024°19'0 0.0
2017-Oct-08 20:57N 40°51' E 024°19'2 5.3
2017-Oct-08 20:30N 40°49' E 024°20'  

Dump ship's entire track history